sensor_id;sensor_type;location;lat;lon;timestamp;temperature;humidity
51739;DHT22;37815;52.692;6.226;2023-04-24T00:00:51;15.00;96.60
51739;DHT22;37815;52.692;6.226;2023-04-24T00:05:52;14.30;96.50
51739;DHT22;37815;52.692;6.226;2023-04-24T00:10:53;14.80;96.60
51739;DHT22;37815;52.692;6.226;2023-04-24T00:15:55;14.30;96.50
51739;DHT22;37815;52.692;6.226;2023-04-24T00:20:56;14.60;96.60
51739;DHT22;37815;52.692;6.226;2023-04-24T00:25:56;14.50;96.60
51739;DHT22;37815;52.692;6.226;2023-04-24T00:30:57;15.00;96.70
51739;DHT22;37815;52.692;6.226;2023-04-24T00:35:58;14.20;96.50
51739;DHT22;37815;52.692;6.226;2023-04-24T00:40:58;14.20;96.50
51739;DHT22;37815;52.692;6.226;2023-04-24T00:45:59;14.40;96.60
51739;DHT22;37815;52.692;6.226;2023-04-24T00:51:02;14.70;96.70
51739;DHT22;37815;52.692;6.226;2023-04-24T00:56:03;14.10;96.50
51739;DHT22;37815;52.692;6.226;2023-04-24T01:01:05;14.10;96.60
51739;DHT22;37815;52.692;6.226;2023-04-24T01:06:07;14.80;96.70
51739;DHT22;37815;52.692;6.226;2023-04-24T01:11:08;14.10;96.60
51739;DHT22;37815;52.692;6.226;2023-04-24T01:16:09;14.90;96.80
51739;DHT22;37815;52.692;6.226;2023-04-24T01:21:11;14.10;96.60
51739;DHT22;37815;52.692;6.226;2023-04-24T01:26:15;14.00;96.60
51739;DHT22;37815;52.692;6.226;2023-04-24T01:31:16;14.30;96.70
51739;DHT22;37815;52.692;6.226;2023-04-24T01:36:16;14.00;96.60
51739;DHT22;37815;52.692;6.226;2023-04-24T01:41:19;14.00;96.60
51739;DHT22;37815;52.692;6.226;2023-04-24T01:46:20;14.00;96.90
51739;DHT22;37815;52.692;6.226;2023-04-24T01:51:21;14.30;96.70
51739;DHT22;37815;52.692;6.226;2023-04-24T01:56:22;14.00;96.60
51739;DHT22;37815;52.692;6.226;2023-04-24T02:01:24;14.60;96.80
51739;DHT22;37815;52.692;6.226;2023-04-24T02:06:25;14.60;96.80
51739;DHT22;37815;52.692;6.226;2023-04-24T02:11:26;14.00;96.70
51739;DHT22;37815;52.692;6.226;2023-04-24T02:16:28;13.90;96.60
51739;DHT22;37815;52.692;6.226;2023-04-24T02:21:32;14.50;96.80
51739;DHT22;37815;52.692;6.226;2023-04-24T02:26:33;13.90;96.60
51739;DHT22;37815;52.692;6.226;2023-04-24T02:31:35;13.80;96.60
51739;DHT22;37815;52.692;6.226;2023-04-24T02:36:35;13.80;96.60
51739;DHT22;37815;52.692;6.226;2023-04-24T02:41:36;13.80;96.60
51739;DHT22;37815;52.692;6.226;2023-04-24T02:46:37;13.80;96.60
51739;DHT22;37815;52.692;6.226;2023-04-24T02:51:38;13.80;96.60
51739;DHT22;37815;52.692;6.226;2023-04-24T02:56:41;14.50;96.80
51739;DHT22;37815;52.692;6.226;2023-04-24T03:01:41;13.80;96.60
51739;DHT22;37815;52.692;6.226;2023-04-24T03:06:42;13.70;96.60
51739;DHT22;37815;52.692;6.226;2023-04-24T03:11:45;13.80;96.60
51739;DHT22;37815;52.692;6.226;2023-04-24T03:16:45;14.60;96.90
51739;DHT22;37815;52.692;6.226;2023-04-24T03:21:46;13.90;96.70
51739;DHT22;37815;52.692;6.226;2023-04-24T03:26:47;13.70;96.60
51739;DHT22;37815;52.692;6.226;2023-04-24T03:31:47;13.60;96.60
51739;DHT22;37815;52.692;6.226;2023-04-24T03:36:48;13.60;96.60
51739;DHT22;37815;52.692;6.226;2023-04-24T03:41:48;14.20;96.80
51739;DHT22;37815;52.692;6.226;2023-04-24T03:46:49;13.60;96.70
51739;DHT22;37815;52.692;6.226;2023-04-24T03:51:49;14.00;96.80
51739;DHT22;37815;52.692;6.226;2023-04-24T03:56:51;13.60;96.70
51739;DHT22;37815;52.692;6.226;2023-04-24T04:01:51;13.50;96.70
51739;DHT22;37815;52.692;6.226;2023-04-24T04:06:52;14.10;96.80
51739;DHT22;37815;52.692;6.226;2023-04-24T04:11:53;14.60;97.00
51739;DHT22;37815;52.692;6.226;2023-04-24T04:16:54;14.20;96.90
51739;DHT22;37815;52.692;6.226;2023-04-24T04:21:56;13.70;96.70
51739;DHT22;37815;52.692;6.226;2023-04-24T04:26:57;13.60;96.80
51739;DHT22;37815;52.692;6.226;2023-04-24T04:31:58;13.50;96.70
51739;DHT22;37815;52.692;6.226;2023-04-24T04:36:59;13.40;96.70
51739;DHT22;37815;52.692;6.226;2023-04-24T04:42:01;14.10;96.90
51739;DHT22;37815;52.692;6.226;2023-04-24T04:47:02;13.40;96.70
51739;DHT22;37815;52.692;6.226;2023-04-24T04:52:05;13.40;96.70
51739;DHT22;37815;52.692;6.226;2023-04-24T04:57:06;13.90;96.80
51739;DHT22;37815;52.692;6.226;2023-04-24T05:02:07;13.70;96.80
51739;DHT22;37815;52.692;6.226;2023-04-24T05:07:08;13.40;96.70
51739;DHT22;37815;52.692;6.226;2023-04-24T05:12:08;13.40;96.70
51739;DHT22;37815;52.692;6.226;2023-04-24T05:17:09;13.60;96.80
51739;DHT22;37815;52.692;6.226;2023-04-24T05:22:10;14.50;97.00
51739;DHT22;37815;52.692;6.226;2023-04-24T05:27:11;14.10;96.90
51739;DHT22;37815;52.692;6.226;2023-04-24T05:32:12;13.90;96.80
51739;DHT22;37815;52.692;6.226;2023-04-24T05:37:13;13.60;96.70
51739;DHT22;37815;52.692;6.226;2023-04-24T05:42:13;14.20;96.90
51739;DHT22;37815;52.692;6.226;2023-04-24T05:47:14;14.70;97.00
51739;DHT22;37815;52.692;6.226;2023-04-24T05:52:15;13.70;96.80
51739;DHT22;37815;52.692;6.226;2023-04-24T05:57:16;13.50;96.80
51739;DHT22;37815;52.692;6.226;2023-04-24T06:02:16;14.30;97.00
51739;DHT22;37815;52.692;6.226;2023-04-24T06:07:17;13.30;96.70
51739;DHT22;37815;52.692;6.226;2023-04-24T06:12:18;13.40;96.70
51739;DHT22;37815;52.692;6.226;2023-04-24T06:17:19;14.50;97.00
51739;DHT22;37815;52.692;6.226;2023-04-24T06:22:20;13.20;96.70
51739;DHT22;37815;52.692;6.226;2023-04-24T06:27:20;13.20;96.70
51739;DHT22;37815;52.692;6.226;2023-04-24T06:32:23;14.20;97.00
51739;DHT22;37815;52.692;6.226;2023-04-24T06:37:24;13.20;96.70
51739;DHT22;37815;52.692;6.226;2023-04-24T06:42:25;13.20;96.80
51739;DHT22;37815;52.692;6.226;2023-04-24T06:47:26;14.30;97.00
51739;DHT22;37815;52.692;6.226;2023-04-24T06:52:27;13.50;96.80
51739;DHT22;37815;52.692;6.226;2023-04-24T06:57:28;13.70;96.90
51739;DHT22;37815;52.692;6.226;2023-04-24T07:02:29;14.50;97.10
51739;DHT22;37815;52.692;6.226;2023-04-24T07:07:29;14.00;97.00
51739;DHT22;37815;52.692;6.226;2023-04-24T07:12:30;13.20;96.80
51739;DHT22;37815;52.692;6.226;2023-04-24T07:17:31;13.20;96.80
51739;DHT22;37815;52.692;6.226;2023-04-24T07:22:31;13.20;96.80
51739;DHT22;37815;52.692;6.226;2023-04-24T07:27:32;14.00;97.00
51739;DHT22;37815;52.692;6.226;2023-04-24T07:32:33;13.20;96.80
51739;DHT22;37815;52.692;6.226;2023-04-24T07:37:35;13.50;96.90
51739;DHT22;37815;52.692;6.226;2023-04-24T07:42:36;13.40;96.90
51739;DHT22;37815;52.692;6.226;2023-04-24T07:47:37;13.10;96.80
51739;DHT22;37815;52.692;6.226;2023-04-24T07:52:39;13.30;96.90
51739;DHT22;37815;52.692;6.226;2023-04-24T07:57:40;13.90;97.00
51739;DHT22;37815;52.692;6.226;2023-04-24T08:02:41;13.70;97.00
51739;DHT22;37815;52.692;6.226;2023-04-24T08:07:41;13.80;97.00
51739;DHT22;37815;52.692;6.226;2023-04-24T08:12:43;13.10;96.90
51739;DHT22;37815;52.692;6.226;2023-04-24T08:17:43;14.20;97.10
51739;DHT22;37815;52.692;6.226;2023-04-24T08:22:44;14.00;97.10
51739;DHT22;37815;52.692;6.226;2023-04-24T08:27:47;13.60;97.00
51739;DHT22;37815;52.692;6.226;2023-04-24T08:32:48;13.10;96.90
51739;DHT22;37815;52.692;6.226;2023-04-24T08:37:48;13.10;97.00
51739;DHT22;37815;52.692;6.226;2023-04-24T08:42:50;13.70;97.10
51739;DHT22;37815;52.692;6.226;2023-04-24T08:47:54;13.20;97.00
51739;DHT22;37815;52.692;6.226;2023-04-24T08:52:55;13.60;97.10
51739;DHT22;37815;52.692;6.226;2023-04-24T08:57:58;14.30;97.30
51739;DHT22;37815;52.692;6.226;2023-04-24T09:03:00;13.00;97.00
51739;DHT22;37815;52.692;6.226;2023-04-24T09:08:06;13.00;97.00
51739;DHT22;37815;52.692;6.226;2023-04-24T09:13:07;13.00;96.90
51739;DHT22;37815;52.692;6.226;2023-04-24T09:18:11;13.30;97.00
51739;DHT22;37815;52.692;6.226;2023-04-24T09:23:17;13.10;96.90
51739;DHT22;37815;52.692;6.226;2023-04-24T09:28:33;13.90;97.10
51739;DHT22;37815;52.692;6.226;2023-04-24T09:33:36;13.70;97.00
51739;DHT22;37815;52.692;6.226;2023-04-24T09:38:37;14.10;97.10
51739;DHT22;37815;52.692;6.226;2023-04-24T09:43:38;13.50;97.00
51739;DHT22;37815;52.692;6.226;2023-04-24T09:48:38;13.10;96.90
51739;DHT22;37815;52.692;6.226;2023-04-24T09:53:46;13.10;96.90
51739;DHT22;37815;52.692;6.226;2023-04-24T09:58:47;13.10;96.90
51739;DHT22;37815;52.692;6.226;2023-04-24T10:03:48;13.50;97.00
51739;DHT22;37815;52.692;6.226;2023-04-24T10:08:50;13.10;96.90
51739;DHT22;37815;52.692;6.226;2023-04-24T10:13:51;13.50;97.00
51739;DHT22;37815;52.692;6.226;2023-04-24T10:18:52;13.30;97.00
51739;DHT22;37815;52.692;6.226;2023-04-24T10:23:53;13.40;97.00
51739;DHT22;37815;52.692;6.226;2023-04-24T10:28:54;13.30;97.00
51739;DHT22;37815;52.692;6.226;2023-04-24T10:33:57;13.40;96.90
51739;DHT22;37815;52.692;6.226;2023-04-24T10:39:01;13.40;97.10
51739;DHT22;37815;52.692;6.226;2023-04-24T10:44:11;12.90;97.00
51739;DHT22;37815;52.692;6.226;2023-04-24T10:49:11;12.90;97.00
51739;DHT22;37815;52.692;6.226;2023-04-24T10:54:33;13.00;96.90
51739;DHT22;37815;52.692;6.226;2023-04-24T10:59:35;13.00;97.00
51739;DHT22;37815;52.692;6.226;2023-04-24T11:04:37;13.00;96.70
51739;DHT22;37815;52.692;6.226;2023-04-24T11:09:38;13.10;96.80
51739;DHT22;37815;52.692;6.226;2023-04-24T11:20:04;13.10;96.80
51739;DHT22;37815;52.692;6.226;2023-04-24T11:25:09;13.10;96.70
51739;DHT22;37815;52.692;6.226;2023-04-24T11:30:12;14.00;96.90
51739;DHT22;37815;52.692;6.226;2023-04-24T11:35:21;13.10;96.70
51739;DHT22;37815;52.692;6.226;2023-04-24T11:40:25;12.90;96.20
51739;DHT22;37815;52.692;6.226;2023-04-24T11:45:29;12.50;96.70
51739;DHT22;37815;52.692;6.226;2023-04-24T11:50:30;12.50;96.90
51739;DHT22;37815;52.692;6.226;2023-04-24T11:55:31;13.00;97.10
51739;DHT22;37815;52.692;6.226;2023-04-24T12:00:32;12.70;96.80
51739;DHT22;37815;52.692;6.226;2023-04-24T12:05:36;13.90;97.00
51739;DHT22;37815;52.692;6.226;2023-04-24T12:10:38;12.90;96.70
51739;DHT22;37815;52.692;6.226;2023-04-24T12:15:40;12.90;96.60
51739;DHT22;37815;52.692;6.226;2023-04-24T12:20:41;13.00;96.50
51739;DHT22;37815;52.692;6.226;2023-04-24T12:25:41;13.40;96.60
51739;DHT22;37815;52.692;6.226;2023-04-24T12:30:44;13.70;96.80
51739;DHT22;37815;52.692;6.226;2023-04-24T12:35:45;13.00;96.60
51739;DHT22;37815;52.692;6.226;2023-04-24T12:40:46;13.00;96.60
51739;DHT22;37815;52.692;6.226;2023-04-24T12:45:47;13.00;96.60
51739;DHT22;37815;52.692;6.226;2023-04-24T12:50:48;13.00;96.60
51739;DHT22;37815;52.692;6.226;2023-04-24T12:55:49;13.00;96.60
51739;DHT22;37815;52.692;6.226;2023-04-24T13:00:53;13.00;96.60
51739;DHT22;37815;52.692;6.226;2023-04-24T13:05:54;13.00;96.60
51739;DHT22;37815;52.692;6.226;2023-04-24T13:10:55;13.00;96.70
51739;DHT22;37815;52.692;6.226;2023-04-24T13:15:56;13.00;96.70
51739;DHT22;37815;52.692;6.226;2023-04-24T13:20:57;13.90;96.90
51739;DHT22;37815;52.692;6.226;2023-04-24T13:26:00;13.00;96.70
51739;DHT22;37815;52.692;6.226;2023-04-24T13:31:01;13.10;96.70
51739;DHT22;37815;52.692;6.226;2023-04-24T13:36:02;13.60;96.90
51739;DHT22;37815;52.692;6.226;2023-04-24T13:41:02;13.00;96.60
51739;DHT22;37815;52.692;6.226;2023-04-24T13:46:03;12.90;96.60
51739;DHT22;37815;52.692;6.226;2023-04-24T13:51:04;12.90;96.60
51739;DHT22;37815;52.692;6.226;2023-04-24T13:56:05;12.90;96.60
51739;DHT22;37815;52.692;6.226;2023-04-24T14:01:06;12.90;96.60
51739;DHT22;37815;52.692;6.226;2023-04-24T14:06:07;13.00;96.60
51739;DHT22;37815;52.692;6.226;2023-04-24T14:11:08;12.90;96.60
51739;DHT22;37815;52.692;6.226;2023-04-24T14:16:10;12.80;96.60
51739;DHT22;37815;52.692;6.226;2023-04-24T14:21:10;12.90;96.60
51739;DHT22;37815;52.692;6.226;2023-04-24T14:26:12;12.90;96.60
51739;DHT22;37815;52.692;6.226;2023-04-24T14:31:12;12.90;96.60
51739;DHT22;37815;52.692;6.226;2023-04-24T14:36:13;13.60;96.80
51739;DHT22;37815;52.692;6.226;2023-04-24T14:41:15;12.90;96.60
51739;DHT22;37815;52.692;6.226;2023-04-24T14:46:16;13.20;96.60
51739;DHT22;37815;52.692;6.226;2023-04-24T14:51:20;13.50;96.70
51739;DHT22;37815;52.692;6.226;2023-04-24T14:56:21;12.90;96.60
51739;DHT22;37815;52.692;6.226;2023-04-24T15:01:21;12.10;96.40
51739;DHT22;37815;52.692;6.226;2023-04-24T15:06:22;12.90;96.50
51739;DHT22;37815;52.692;6.226;2023-04-24T15:11:23;12.90;96.50
51739;DHT22;37815;52.692;6.226;2023-04-24T15:16:24;13.30;96.60
51739;DHT22;37815;52.692;6.226;2023-04-24T15:21:25;13.80;96.60
51739;DHT22;37815;52.692;6.226;2023-04-24T15:26:26;14.00;96.70
51739;DHT22;37815;52.692;6.226;2023-04-24T15:31:27;12.90;96.40
51739;DHT22;37815;52.692;6.226;2023-04-24T15:36:28;12.90;96.40
51739;DHT22;37815;52.692;6.226;2023-04-24T15:41:29;13.00;96.40
51739;DHT22;37815;52.692;6.226;2023-04-24T15:46:29;13.00;96.40
51739;DHT22;37815;52.692;6.226;2023-04-24T15:51:30;13.00;96.40
51739;DHT22;37815;52.692;6.226;2023-04-24T15:56:31;13.00;96.40
51739;DHT22;37815;52.692;6.226;2023-04-24T16:01:37;11.90;96.10
51739;DHT22;37815;52.692;6.226;2023-04-24T16:06:38;13.00;96.40
51739;DHT22;37815;52.692;6.226;2023-04-24T16:11:38;13.00;96.40
51739;DHT22;37815;52.692;6.226;2023-04-24T16:16:39;13.00;96.50
51739;DHT22;37815;52.692;6.226;2023-04-24T16:21:39;13.10;96.40
51739;DHT22;37815;52.692;6.226;2023-04-24T16:26:40;13.30;96.30
51739;DHT22;37815;52.692;6.226;2023-04-24T16:31:41;13.20;96.30
51739;DHT22;37815;52.692;6.226;2023-04-24T16:36:42;13.20;96.30
51739;DHT22;37815;52.692;6.226;2023-04-24T16:41:43;14.00;96.50
51739;DHT22;37815;52.692;6.226;2023-04-24T16:46:44;14.00;96.50
51739;DHT22;37815;52.692;6.226;2023-04-24T16:51:45;13.50;96.50
51739;DHT22;37815;52.692;6.226;2023-04-24T16:56:45;13.70;96.50
51739;DHT22;37815;52.692;6.226;2023-04-24T17:01:46;13.20;96.50
51739;DHT22;37815;52.692;6.226;2023-04-24T17:06:47;13.10;96.50
51739;DHT22;37815;52.692;6.226;2023-04-24T17:11:48;13.20;96.60
51739;DHT22;37815;52.692;6.226;2023-04-24T17:16:50;13.10;96.60
51739;DHT22;37815;52.692;6.226;2023-04-24T17:21:51;13.10;96.70
51739;DHT22;37815;52.692;6.226;2023-04-24T17:26:52;13.30;96.80
51739;DHT22;37815;52.692;6.226;2023-04-24T17:31:53;13.10;96.80
51739;DHT22;37815;52.692;6.226;2023-04-24T17:36:55;13.10;96.80
51739;DHT22;37815;52.692;6.226;2023-04-24T17:41:55;13.10;96.80
51739;DHT22;37815;52.692;6.226;2023-04-24T17:46:57;13.00;96.80
51739;DHT22;37815;52.692;6.226;2023-04-24T17:51:58;13.00;96.90
51739;DHT22;37815;52.692;6.226;2023-04-24T17:56:59;13.60;97.10
51739;DHT22;37815;52.692;6.226;2023-04-24T18:01:59;12.90;97.00
51739;DHT22;37815;52.692;6.226;2023-04-24T18:07:00;13.30;97.10
51739;DHT22;37815;52.692;6.226;2023-04-24T18:12:01;14.00;97.30
51739;DHT22;37815;52.692;6.226;2023-04-24T18:17:02;12.80;97.10
51739;DHT22;37815;52.692;6.226;2023-04-24T18:22:02;13.80;97.30
51739;DHT22;37815;52.692;6.226;2023-04-24T18:27:04;13.40;97.30
51739;DHT22;37815;52.692;6.226;2023-04-24T18:32:04;12.60;97.10
51739;DHT22;37815;52.692;6.226;2023-04-24T18:37:06;13.00;97.20
51739;DHT22;37815;52.692;6.226;2023-04-24T18:42:07;13.20;97.20
51739;DHT22;37815;52.692;6.226;2023-04-24T18:47:08;13.70;97.40
51739;DHT22;37815;52.692;6.226;2023-04-24T18:52:09;12.60;97.40
51739;DHT22;37815;52.692;6.226;2023-04-24T18:57:10;12.90;97.20
51739;DHT22;37815;52.692;6.226;2023-04-24T19:02:10;13.00;97.20
51739;DHT22;37815;52.692;6.226;2023-04-24T19:07:17;12.50;97.10
51739;DHT22;37815;52.692;6.226;2023-04-24T19:12:19;13.00;97.20
51739;DHT22;37815;52.692;6.226;2023-04-24T19:17:19;12.50;97.10
51739;DHT22;37815;52.692;6.226;2023-04-24T19:22:23;12.50;97.10
51739;DHT22;37815;52.692;6.226;2023-04-24T19:27:24;12.90;97.20
51739;DHT22;37815;52.692;6.226;2023-04-24T19:32:25;12.50;97.10
51739;DHT22;37815;52.692;6.226;2023-04-24T19:37:26;13.20;97.30
51739;DHT22;37815;52.692;6.226;2023-04-24T19:42:26;13.10;97.20
51739;DHT22;37815;52.692;6.226;2023-04-24T19:47:27;12.40;97.10
51739;DHT22;37815;52.692;6.226;2023-04-24T19:52:27;12.40;97.10
51739;DHT22;37815;52.692;6.226;2023-04-24T19:57:28;12.40;97.10
51739;DHT22;37815;52.692;6.226;2023-04-24T20:02:29;12.40;97.10
51739;DHT22;37815;52.692;6.226;2023-04-24T20:07:30;12.40;97.10
51739;DHT22;37815;52.692;6.226;2023-04-24T20:12:31;13.50;97.40
51739;DHT22;37815;52.692;6.226;2023-04-24T20:17:33;12.40;97.10
51739;DHT22;37815;52.692;6.226;2023-04-24T20:22:34;12.30;97.10
51739;DHT22;37815;52.692;6.226;2023-04-24T20:27:39;12.30;97.10
51739;DHT22;37815;52.692;6.226;2023-04-24T20:32:41;12.60;97.20
51739;DHT22;37815;52.692;6.226;2023-04-24T20:37:42;12.90;97.30
51739;DHT22;37815;52.692;6.226;2023-04-24T20:42:43;12.30;97.10
51739;DHT22;37815;52.692;6.226;2023-04-24T20:47:45;12.30;97.10
51739;DHT22;37815;52.692;6.226;2023-04-24T20:52:46;12.30;97.10
51739;DHT22;37815;52.692;6.226;2023-04-24T20:57:46;13.20;97.40
51739;DHT22;37815;52.692;6.226;2023-04-24T21:02:48;12.30;97.20
51739;DHT22;37815;52.692;6.226;2023-04-24T21:07:49;12.20;97.10
51739;DHT22;37815;52.692;6.226;2023-04-24T21:12:51;12.20;97.20
51739;DHT22;37815;52.692;6.226;2023-04-24T21:17:52;13.50;97.50
51739;DHT22;37815;52.692;6.226;2023-04-24T21:22:52;13.40;97.50
51739;DHT22;37815;52.692;6.226;2023-04-24T21:27:53;12.20;97.20
51739;DHT22;37815;52.692;6.226;2023-04-24T21:32:54;13.00;97.40
51739;DHT22;37815;52.692;6.226;2023-04-24T21:37:55;12.20;97.20
51739;DHT22;37815;52.692;6.226;2023-04-24T21:42:56;13.10;97.50
51739;DHT22;37815;52.692;6.226;2023-04-24T21:47:57;12.10;97.20
51739;DHT22;37815;52.692;6.226;2023-04-24T21:52:58;12.20;97.20
51739;DHT22;37815;52.692;6.226;2023-04-24T21:57:59;12.10;97.20
51739;DHT22;37815;52.692;6.226;2023-04-24T22:03:00;12.10;97.20
51739;DHT22;37815;52.692;6.226;2023-04-24T22:08:00;12.10;97.20
51739;DHT22;37815;52.692;6.226;2023-04-24T22:13:02;12.10;97.20
51739;DHT22;37815;52.692;6.226;2023-04-24T22:18:03;12.10;97.20
51739;DHT22;37815;52.692;6.226;2023-04-24T22:23:04;12.10;97.20
51739;DHT22;37815;52.692;6.226;2023-04-24T22:28:05;12.10;97.30
51739;DHT22;37815;52.692;6.226;2023-04-24T22:33:06;12.00;97.20
51739;DHT22;37815;52.692;6.226;2023-04-24T22:38:06;12.00;97.30
51739;DHT22;37815;52.692;6.226;2023-04-24T22:43:07;12.00;97.20
51739;DHT22;37815;52.692;6.226;2023-04-24T22:48:08;12.00;97.30
51739;DHT22;37815;52.692;6.226;2023-04-24T22:53:08;12.00;97.20
51739;DHT22;37815;52.692;6.226;2023-04-24T22:58:09;12.00;97.20
51739;DHT22;37815;52.692;6.226;2023-04-24T23:03:10;12.00;97.20
51739;DHT22;37815;52.692;6.226;2023-04-24T23:08:11;11.90;97.20
51739;DHT22;37815;52.692;6.226;2023-04-24T23:13:11;12.00;97.20
51739;DHT22;37815;52.692;6.226;2023-04-24T23:18:12;12.00;97.50
51739;DHT22;37815;52.692;6.226;2023-04-24T23:23:13;11.90;97.20
51739;DHT22;37815;52.692;6.226;2023-04-24T23:28:15;11.90;97.20
51739;DHT22;37815;52.692;6.226;2023-04-24T23:33:15;11.90;97.20
51739;DHT22;37815;52.692;6.226;2023-04-24T23:38:16;11.90;97.20
51739;DHT22;37815;52.692;6.226;2023-04-24T23:43:17;11.90;97.20
51739;DHT22;37815;52.692;6.226;2023-04-24T23:48:17;11.80;97.20
51739;DHT22;37815;52.692;6.226;2023-04-24T23:53:18;11.80;97.20
51739;DHT22;37815;52.692;6.226;2023-04-24T23:58:18;11.80;97.20
